sensor_id;sensor_type;location;lat;lon;timestamp;temperature;humidity
44823;DHT22;51097;51.984;5.650;2022-08-19T00:00:17;22.30;99.90
44823;DHT22;51097;51.984;5.650;2022-08-19T00:02:44;22.20;99.90
44823;DHT22;51097;51.984;5.650;2022-08-19T00:05:11;22.10;99.90
44823;DHT22;51097;51.984;5.650;2022-08-19T00:07:37;22.10;99.90
44823;DHT22;51097;51.984;5.650;2022-08-19T00:10:05;22.10;99.90
44823;DHT22;51097;51.984;5.650;2022-08-19T00:12:31;22.10;99.90
44823;DHT22;51097;51.984;5.650;2022-08-19T00:14:56;22.20;99.90
44823;DHT22;51097;51.984;5.650;2022-08-19T00:17:22;22.00;99.90
44823;DHT22;51097;51.984;5.650;2022-08-19T00:19:48;22.10;99.90
44823;DHT22;51097;51.984;5.650;2022-08-19T00:22:13;22.10;99.90
44823;DHT22;51097;51.984;5.650;2022-08-19T00:24:39;22.00;99.90
44823;DHT22;51097;51.984;5.650;2022-08-19T00:27:06;22.00;99.90
44823;DHT22;51097;51.984;5.650;2022-08-19T00:29:32;21.90;99.90
44823;DHT22;51097;51.984;5.650;2022-08-19T00:31:58;21.80;99.90
44823;DHT22;51097;51.984;5.650;2022-08-19T00:34:25;21.80;99.90
44823;DHT22;51097;51.984;5.650;2022-08-19T00:36:53;21.80;99.90
44823;DHT22;51097;51.984;5.650;2022-08-19T00:39:19;21.80;99.90
44823;DHT22;51097;51.984;5.650;2022-08-19T00:41:45;21.80;99.90
44823;DHT22;51097;51.984;5.650;2022-08-19T00:44:21;21.80;99.90
44823;DHT22;51097;51.984;5.650;2022-08-19T00:46:49;21.70;99.90
44823;DHT22;51097;51.984;5.650;2022-08-19T00:51:57;21.70;99.90
44823;DHT22;51097;51.984;5.650;2022-08-19T00:54:25;21.70;99.90
44823;DHT22;51097;51.984;5.650;2022-08-19T00:56:51;21.60;99.90
44823;DHT22;51097;51.984;5.650;2022-08-19T00:59:18;21.60;99.90
44823;DHT22;51097;51.984;5.650;2022-08-19T01:01:45;21.50;99.90
44823;DHT22;51097;51.984;5.650;2022-08-19T01:04:11;21.50;99.90
44823;DHT22;51097;51.984;5.650;2022-08-19T01:06:38;21.50;99.90
44823;DHT22;51097;51.984;5.650;2022-08-19T01:09:05;21.50;99.90
44823;DHT22;51097;51.984;5.650;2022-08-19T01:11:41;21.60;99.90
44823;DHT22;51097;51.984;5.650;2022-08-19T01:14:08;21.50;99.90
44823;DHT22;51097;51.984;5.650;2022-08-19T01:16:34;21.50;99.90
44823;DHT22;51097;51.984;5.650;2022-08-19T01:19:00;21.50;99.90
44823;DHT22;51097;51.984;5.650;2022-08-19T01:21:40;21.60;99.90
44823;DHT22;51097;51.984;5.650;2022-08-19T01:24:07;21.50;99.90
44823;DHT22;51097;51.984;5.650;2022-08-19T01:26:38;21.40;99.90
44823;DHT22;51097;51.984;5.650;2022-08-19T01:29:06;21.40;99.90
44823;DHT22;51097;51.984;5.650;2022-08-19T01:31:33;21.40;99.90
44823;DHT22;51097;51.984;5.650;2022-08-19T01:34:00;21.40;99.90
44823;DHT22;51097;51.984;5.650;2022-08-19T01:36:33;21.30;99.90
44823;DHT22;51097;51.984;5.650;2022-08-19T01:39:01;21.30;99.90
44823;DHT22;51097;51.984;5.650;2022-08-19T01:41:27;21.30;99.90
44823;DHT22;51097;51.984;5.650;2022-08-19T01:43:53;21.30;99.90
44823;DHT22;51097;51.984;5.650;2022-08-19T01:46:19;21.20;99.90
44823;DHT22;51097;51.984;5.650;2022-08-19T01:48:45;21.10;99.90
44823;DHT22;51097;51.984;5.650;2022-08-19T01:51:12;21.10;99.90
44823;DHT22;51097;51.984;5.650;2022-08-19T01:53:38;21.00;99.90
44823;DHT22;51097;51.984;5.650;2022-08-19T01:56:05;21.00;99.90
44823;DHT22;51097;51.984;5.650;2022-08-19T01:58:38;21.00;99.90
44823;DHT22;51097;51.984;5.650;2022-08-19T02:01:06;20.90;99.90
44823;DHT22;51097;51.984;5.650;2022-08-19T02:03:31;20.90;99.90
44823;DHT22;51097;51.984;5.650;2022-08-19T02:05:59;20.70;99.90
44823;DHT22;51097;51.984;5.650;2022-08-19T02:08:26;20.60;99.90
44823;DHT22;51097;51.984;5.650;2022-08-19T02:10:52;20.60;99.90
44823;DHT22;51097;51.984;5.650;2022-08-19T02:13:18;20.70;99.90
44823;DHT22;51097;51.984;5.650;2022-08-19T02:15:44;20.70;99.90
44823;DHT22;51097;51.984;5.650;2022-08-19T02:18:09;20.70;99.90
44823;DHT22;51097;51.984;5.650;2022-08-19T02:20:36;20.80;99.90
44823;DHT22;51097;51.984;5.650;2022-08-19T02:23:03;20.60;99.90
44823;DHT22;51097;51.984;5.650;2022-08-19T02:25:28;20.60;99.90
44823;DHT22;51097;51.984;5.650;2022-08-19T02:27:54;20.60;99.90
44823;DHT22;51097;51.984;5.650;2022-08-19T02:30:20;20.60;99.90
44823;DHT22;51097;51.984;5.650;2022-08-19T02:32:46;20.60;99.90
44823;DHT22;51097;51.984;5.650;2022-08-19T02:35:15;20.50;99.90
44823;DHT22;51097;51.984;5.650;2022-08-19T02:37:41;20.40;99.90
44823;DHT22;51097;51.984;5.650;2022-08-19T02:40:27;20.50;99.90
44823;DHT22;51097;51.984;5.650;2022-08-19T02:42:52;20.50;99.90
44823;DHT22;51097;51.984;5.650;2022-08-19T02:45:18;20.50;99.90
44823;DHT22;51097;51.984;5.650;2022-08-19T02:47:44;20.50;99.90
44823;DHT22;51097;51.984;5.650;2022-08-19T02:50:09;20.50;99.90
44823;DHT22;51097;51.984;5.650;2022-08-19T02:52:36;20.60;99.90
44823;DHT22;51097;51.984;5.650;2022-08-19T02:55:02;20.50;99.90
44823;DHT22;51097;51.984;5.650;2022-08-19T02:57:27;20.50;99.90
44823;DHT22;51097;51.984;5.650;2022-08-19T02:59:53;20.50;99.90
44823;DHT22;51097;51.984;5.650;2022-08-19T03:02:19;20.60;99.90
44823;DHT22;51097;51.984;5.650;2022-08-19T03:04:44;20.50;99.90
44823;DHT22;51097;51.984;5.650;2022-08-19T03:07:14;20.50;99.90
44823;DHT22;51097;51.984;5.650;2022-08-19T03:09:40;20.50;99.90
44823;DHT22;51097;51.984;5.650;2022-08-19T03:12:07;20.50;99.90
44823;DHT22;51097;51.984;5.650;2022-08-19T03:14:34;20.50;99.90
44823;DHT22;51097;51.984;5.650;2022-08-19T03:17:00;20.40;99.90
44823;DHT22;51097;51.984;5.650;2022-08-19T03:19:25;20.50;99.90
44823;DHT22;51097;51.984;5.650;2022-08-19T03:21:51;20.60;99.90
44823;DHT22;51097;51.984;5.650;2022-08-19T03:24:18;20.50;99.90
44823;DHT22;51097;51.984;5.650;2022-08-19T03:26:46;20.40;99.90
44823;DHT22;51097;51.984;5.650;2022-08-19T03:29:14;20.40;99.90
44823;DHT22;51097;51.984;5.650;2022-08-19T03:31:41;20.30;99.90
44823;DHT22;51097;51.984;5.650;2022-08-19T03:34:13;20.40;99.90
44823;DHT22;51097;51.984;5.650;2022-08-19T03:36:39;20.40;99.90
44823;DHT22;51097;51.984;5.650;2022-08-19T03:39:05;20.40;99.90
44823;DHT22;51097;51.984;5.650;2022-08-19T03:41:35;20.30;99.90
44823;DHT22;51097;51.984;5.650;2022-08-19T03:44:02;20.30;99.90
44823;DHT22;51097;51.984;5.650;2022-08-19T03:46:30;20.20;99.90
44823;DHT22;51097;51.984;5.650;2022-08-19T03:48:58;20.30;99.90
44823;DHT22;51097;51.984;5.650;2022-08-19T03:51:27;20.30;99.90
44823;DHT22;51097;51.984;5.650;2022-08-19T03:53:54;20.30;99.90
44823;DHT22;51097;51.984;5.650;2022-08-19T03:56:21;20.20;99.90
44823;DHT22;51097;51.984;5.650;2022-08-19T03:58:47;20.10;99.90
44823;DHT22;51097;51.984;5.650;2022-08-19T04:01:15;20.10;99.90
44823;DHT22;51097;51.984;5.650;2022-08-19T04:03:42;20.00;99.90
44823;DHT22;51097;51.984;5.650;2022-08-19T04:06:17;19.90;99.90
44823;DHT22;51097;51.984;5.650;2022-08-19T04:08:45;20.00;99.90
44823;DHT22;51097;51.984;5.650;2022-08-19T04:11:13;20.00;99.90
44823;DHT22;51097;51.984;5.650;2022-08-19T04:13:39;19.90;99.90
44823;DHT22;51097;51.984;5.650;2022-08-19T04:16:05;20.00;99.90
44823;DHT22;51097;51.984;5.650;2022-08-19T04:18:33;20.00;99.90
44823;DHT22;51097;51.984;5.650;2022-08-19T04:20:59;19.90;99.90
44823;DHT22;51097;51.984;5.650;2022-08-19T04:23:25;19.90;99.90
44823;DHT22;51097;51.984;5.650;2022-08-19T04:25:53;19.90;99.90
44823;DHT22;51097;51.984;5.650;2022-08-19T04:28:19;19.90;99.90
44823;DHT22;51097;51.984;5.650;2022-08-19T04:30:48;19.80;99.90
44823;DHT22;51097;51.984;5.650;2022-08-19T04:33:16;19.80;99.90
44823;DHT22;51097;51.984;5.650;2022-08-19T04:35:45;19.70;99.90
44823;DHT22;51097;51.984;5.650;2022-08-19T04:38:12;19.70;99.90
44823;DHT22;51097;51.984;5.650;2022-08-19T04:40:43;19.80;99.90
44823;DHT22;51097;51.984;5.650;2022-08-19T04:43:28;19.80;99.90
44823;DHT22;51097;51.984;5.650;2022-08-19T04:45:55;19.80;99.90
44823;DHT22;51097;51.984;5.650;2022-08-19T04:48:20;19.80;99.90
44823;DHT22;51097;51.984;5.650;2022-08-19T04:50:51;19.70;99.90
44823;DHT22;51097;51.984;5.650;2022-08-19T04:53:17;19.60;99.90
44823;DHT22;51097;51.984;5.650;2022-08-19T04:55:43;19.70;99.90
44823;DHT22;51097;51.984;5.650;2022-08-19T04:58:08;19.60;99.90
44823;DHT22;51097;51.984;5.650;2022-08-19T05:00:36;19.70;99.90
44823;DHT22;51097;51.984;5.650;2022-08-19T05:03:02;19.70;99.90
44823;DHT22;51097;51.984;5.650;2022-08-19T05:05:27;19.70;99.90
44823;DHT22;51097;51.984;5.650;2022-08-19T05:07:53;19.70;99.90
44823;DHT22;51097;51.984;5.650;2022-08-19T05:10:20;19.50;99.90
44823;DHT22;51097;51.984;5.650;2022-08-19T05:12:46;19.70;99.90
44823;DHT22;51097;51.984;5.650;2022-08-19T05:15:11;19.80;99.90
44823;DHT22;51097;51.984;5.650;2022-08-19T05:17:37;19.80;99.90
44823;DHT22;51097;51.984;5.650;2022-08-19T05:20:04;19.80;99.90
44823;DHT22;51097;51.984;5.650;2022-08-19T05:22:48;19.80;99.90
44823;DHT22;51097;51.984;5.650;2022-08-19T05:25:17;19.80;99.90
44823;DHT22;51097;51.984;5.650;2022-08-19T05:27:44;19.80;99.90
44823;DHT22;51097;51.984;5.650;2022-08-19T05:30:10;19.80;99.90
44823;DHT22;51097;51.984;5.650;2022-08-19T05:32:37;19.80;99.90
44823;DHT22;51097;51.984;5.650;2022-08-19T05:35:03;19.90;99.90
44823;DHT22;51097;51.984;5.650;2022-08-19T05:37:29;19.90;99.90
44823;DHT22;51097;51.984;5.650;2022-08-19T05:39:55;19.90;99.90
44823;DHT22;51097;51.984;5.650;2022-08-19T05:42:21;20.00;99.90
44823;DHT22;51097;51.984;5.650;2022-08-19T05:44:48;20.00;99.90
44823;DHT22;51097;51.984;5.650;2022-08-19T05:47:15;20.00;99.90
44823;DHT22;51097;51.984;5.650;2022-08-19T05:49:41;20.10;99.90
44823;DHT22;51097;51.984;5.650;2022-08-19T05:52:10;20.20;99.90
44823;DHT22;51097;51.984;5.650;2022-08-19T05:54:38;20.30;99.90
44823;DHT22;51097;51.984;5.650;2022-08-19T05:57:05;20.40;99.90
44823;DHT22;51097;51.984;5.650;2022-08-19T05:59:31;20.60;99.90
44823;DHT22;51097;51.984;5.650;2022-08-19T06:01:57;20.60;99.90
44823;DHT22;51097;51.984;5.650;2022-08-19T06:04:22;20.60;99.90
44823;DHT22;51097;51.984;5.650;2022-08-19T06:06:50;20.80;99.90
44823;DHT22;51097;51.984;5.650;2022-08-19T06:09:20;20.90;99.90
44823;DHT22;51097;51.984;5.650;2022-08-19T06:11:51;21.00;99.90
44823;DHT22;51097;51.984;5.650;2022-08-19T06:14:23;21.00;99.90
44823;DHT22;51097;51.984;5.650;2022-08-19T06:16:49;21.10;99.90
44823;DHT22;51097;51.984;5.650;2022-08-19T06:19:19;21.20;99.90
44823;DHT22;51097;51.984;5.650;2022-08-19T06:21:47;21.30;99.90
44823;DHT22;51097;51.984;5.650;2022-08-19T06:24:15;21.30;99.90
44823;DHT22;51097;51.984;5.650;2022-08-19T06:26:43;21.50;99.90
44823;DHT22;51097;51.984;5.650;2022-08-19T06:29:11;21.60;99.90
44823;DHT22;51097;51.984;5.650;2022-08-19T06:31:41;21.50;99.90
44823;DHT22;51097;51.984;5.650;2022-08-19T06:34:07;21.90;99.90
44823;DHT22;51097;51.984;5.650;2022-08-19T06:36:38;21.90;99.90
44823;DHT22;51097;51.984;5.650;2022-08-19T06:39:09;21.90;99.90
44823;DHT22;51097;51.984;5.650;2022-08-19T06:41:38;22.10;99.90
44823;DHT22;51097;51.984;5.650;2022-08-19T06:44:04;22.20;99.90
44823;DHT22;51097;51.984;5.650;2022-08-19T06:46:30;22.30;99.90
44823;DHT22;51097;51.984;5.650;2022-08-19T06:48:56;22.40;99.90
44823;DHT22;51097;51.984;5.650;2022-08-19T06:51:23;22.40;99.90
44823;DHT22;51097;51.984;5.650;2022-08-19T06:53:51;22.50;99.90
44823;DHT22;51097;51.984;5.650;2022-08-19T06:56:20;22.70;99.90
44823;DHT22;51097;51.984;5.650;2022-08-19T06:58:47;22.60;99.90
44823;DHT22;51097;51.984;5.650;2022-08-19T07:01:16;22.70;99.90
44823;DHT22;51097;51.984;5.650;2022-08-19T07:03:41;22.80;99.90
44823;DHT22;51097;51.984;5.650;2022-08-19T07:06:10;22.80;99.90
44823;DHT22;51097;51.984;5.650;2022-08-19T07:08:38;22.80;99.90
44823;DHT22;51097;51.984;5.650;2022-08-19T07:11:08;22.90;99.90
44823;DHT22;51097;51.984;5.650;2022-08-19T07:13:36;22.90;99.90
44823;DHT22;51097;51.984;5.650;2022-08-19T07:16:07;23.00;99.90
44823;DHT22;51097;51.984;5.650;2022-08-19T07:18:34;23.10;99.90
44823;DHT22;51097;51.984;5.650;2022-08-19T07:21:05;23.20;99.90
44823;DHT22;51097;51.984;5.650;2022-08-19T07:23:32;23.40;99.90
44823;DHT22;51097;51.984;5.650;2022-08-19T07:26:03;23.40;99.90
44823;DHT22;51097;51.984;5.650;2022-08-19T07:28:29;23.40;99.90
44823;DHT22;51097;51.984;5.650;2022-08-19T07:30:54;23.60;99.90
44823;DHT22;51097;51.984;5.650;2022-08-19T07:33:20;23.60;99.90
44823;DHT22;51097;51.984;5.650;2022-08-19T07:35:45;23.80;99.90
44823;DHT22;51097;51.984;5.650;2022-08-19T07:38:11;23.80;99.90
44823;DHT22;51097;51.984;5.650;2022-08-19T07:40:37;23.90;99.90
44823;DHT22;51097;51.984;5.650;2022-08-19T07:43:02;24.00;99.90
44823;DHT22;51097;51.984;5.650;2022-08-19T07:45:28;24.10;99.90
44823;DHT22;51097;51.984;5.650;2022-08-19T07:47:54;24.20;99.90
44823;DHT22;51097;51.984;5.650;2022-08-19T07:50:20;24.10;99.90
44823;DHT22;51097;51.984;5.650;2022-08-19T07:52:47;24.10;99.90
44823;DHT22;51097;51.984;5.650;2022-08-19T07:55:15;24.20;99.90
44823;DHT22;51097;51.984;5.650;2022-08-19T07:57:41;24.30;99.90
44823;DHT22;51097;51.984;5.650;2022-08-19T08:00:07;24.30;99.90
44823;DHT22;51097;51.984;5.650;2022-08-19T08:02:33;24.30;99.90
44823;DHT22;51097;51.984;5.650;2022-08-19T08:04:58;24.40;99.90
44823;DHT22;51097;51.984;5.650;2022-08-19T08:07:42;24.40;99.90
44823;DHT22;51097;51.984;5.650;2022-08-19T08:10:26;24.50;99.90
44823;DHT22;51097;51.984;5.650;2022-08-19T08:12:52;24.60;99.90
44823;DHT22;51097;51.984;5.650;2022-08-19T08:15:17;24.60;99.90
44823;DHT22;51097;51.984;5.650;2022-08-19T08:17:44;24.70;99.90
44823;DHT22;51097;51.984;5.650;2022-08-19T08:20:11;24.70;99.90
44823;DHT22;51097;51.984;5.650;2022-08-19T08:22:37;24.90;99.90
44823;DHT22;51097;51.984;5.650;2022-08-19T08:25:26;25.00;99.90
44823;DHT22;51097;51.984;5.650;2022-08-19T08:27:52;25.10;99.90
44823;DHT22;51097;51.984;5.650;2022-08-19T08:30:23;25.30;99.90
44823;DHT22;51097;51.984;5.650;2022-08-19T08:32:50;25.50;99.90
44823;DHT22;51097;51.984;5.650;2022-08-19T08:35:19;25.60;99.90
44823;DHT22;51097;51.984;5.650;2022-08-19T08:37:46;25.80;99.90
44823;DHT22;51097;51.984;5.650;2022-08-19T08:46:08;26.00;99.90
44823;DHT22;51097;51.984;5.650;2022-08-19T08:48:54;26.10;99.90
44823;DHT22;51097;51.984;5.650;2022-08-19T08:51:39;26.00;99.90
44823;DHT22;51097;51.984;5.650;2022-08-19T08:54:10;26.20;99.90
44823;DHT22;51097;51.984;5.650;2022-08-19T08:56:44;26.10;99.90
44823;DHT22;51097;51.984;5.650;2022-08-19T08:59:38;26.10;99.90
44823;DHT22;51097;51.984;5.650;2022-08-19T09:02:06;26.00;99.90
44823;DHT22;51097;51.984;5.650;2022-08-19T09:04:34;26.10;99.90
44823;DHT22;51097;51.984;5.650;2022-08-19T09:07:44;26.20;99.90
44823;DHT22;51097;51.984;5.650;2022-08-19T09:16:10;26.40;99.90
44823;DHT22;51097;51.984;5.650;2022-08-19T09:18:44;26.50;99.90
44823;DHT22;51097;51.984;5.650;2022-08-19T09:21:12;26.70;99.90
44823;DHT22;51097;51.984;5.650;2022-08-19T09:23:38;26.60;99.90
44823;DHT22;51097;51.984;5.650;2022-08-19T09:26:08;26.70;99.90
44823;DHT22;51097;51.984;5.650;2022-08-19T09:28:35;26.80;99.90
44823;DHT22;51097;51.984;5.650;2022-08-19T09:31:02;26.80;99.90
44823;DHT22;51097;51.984;5.650;2022-08-19T09:33:27;26.80;99.90
44823;DHT22;51097;51.984;5.650;2022-08-19T09:36:06;26.90;99.90
44823;DHT22;51097;51.984;5.650;2022-08-19T09:38:33;26.90;99.90
44823;DHT22;51097;51.984;5.650;2022-08-19T09:41:04;26.90;99.90
44823;DHT22;51097;51.984;5.650;2022-08-19T09:43:30;26.80;99.90
44823;DHT22;51097;51.984;5.650;2022-08-19T09:45:56;26.90;99.90
44823;DHT22;51097;51.984;5.650;2022-08-19T09:48:22;26.70;99.90
44823;DHT22;51097;51.984;5.650;2022-08-19T09:50:47;26.80;99.90
44823;DHT22;51097;51.984;5.650;2022-08-19T09:53:16;26.80;99.90
44823;DHT22;51097;51.984;5.650;2022-08-19T09:55:42;26.80;99.90
44823;DHT22;51097;51.984;5.650;2022-08-19T09:58:08;27.00;99.90
44823;DHT22;51097;51.984;5.650;2022-08-19T10:00:34;27.10;99.90
44823;DHT22;51097;51.984;5.650;2022-08-19T10:02:59;27.10;99.90
44823;DHT22;51097;51.984;5.650;2022-08-19T10:05:25;27.30;99.90
44823;DHT22;51097;51.984;5.650;2022-08-19T10:08:09;27.30;99.90
44823;DHT22;51097;51.984;5.650;2022-08-19T10:10:37;27.30;99.90
44823;DHT22;51097;51.984;5.650;2022-08-19T10:13:02;27.40;99.90
44823;DHT22;51097;51.984;5.650;2022-08-19T10:15:29;27.60;99.90
44823;DHT22;51097;51.984;5.650;2022-08-19T10:17:55;27.50;99.90
44823;DHT22;51097;51.984;5.650;2022-08-19T10:20:21;27.60;99.90
44823;DHT22;51097;51.984;5.650;2022-08-19T10:22:47;27.70;99.90
44823;DHT22;51097;51.984;5.650;2022-08-19T10:25:13;27.90;99.90
44823;DHT22;51097;51.984;5.650;2022-08-19T10:27:42;27.80;99.90
44823;DHT22;51097;51.984;5.650;2022-08-19T10:30:08;28.00;99.90
44823;DHT22;51097;51.984;5.650;2022-08-19T10:32:34;27.90;99.90
44823;DHT22;51097;51.984;5.650;2022-08-19T10:34:59;27.90;99.90
44823;DHT22;51097;51.984;5.650;2022-08-19T10:37:25;27.90;99.90
44823;DHT22;51097;51.984;5.650;2022-08-19T10:39:51;28.00;99.90
44823;DHT22;51097;51.984;5.650;2022-08-19T10:42:17;28.10;99.90
44823;DHT22;51097;51.984;5.650;2022-08-19T10:44:44;28.20;99.90
44823;DHT22;51097;51.984;5.650;2022-08-19T10:47:10;28.10;99.90
44823;DHT22;51097;51.984;5.650;2022-08-19T10:49:36;28.30;99.90
44823;DHT22;51097;51.984;5.650;2022-08-19T10:52:22;28.40;99.90
44823;DHT22;51097;51.984;5.650;2022-08-19T10:55:04;28.60;99.90
44823;DHT22;51097;51.984;5.650;2022-08-19T10:57:49;28.80;99.90
44823;DHT22;51097;51.984;5.650;2022-08-19T11:00:15;28.80;99.90
44823;DHT22;51097;51.984;5.650;2022-08-19T11:02:41;28.90;99.90
44823;DHT22;51097;51.984;5.650;2022-08-19T11:05:08;29.10;99.90
44823;DHT22;51097;51.984;5.650;2022-08-19T11:07:37;29.20;99.90
44823;DHT22;51097;51.984;5.650;2022-08-19T11:10:03;29.30;99.90
44823;DHT22;51097;51.984;5.650;2022-08-19T11:12:29;29.20;99.90
44823;DHT22;51097;51.984;5.650;2022-08-19T11:14:55;29.10;99.90
44823;DHT22;51097;51.984;5.650;2022-08-19T11:17:23;29.30;99.80
44823;DHT22;51097;51.984;5.650;2022-08-19T11:19:49;29.30;99.90
44823;DHT22;51097;51.984;5.650;2022-08-19T11:22:15;29.20;99.90
44823;DHT22;51097;51.984;5.650;2022-08-19T11:24:42;29.20;99.60
44823;DHT22;51097;51.984;5.650;2022-08-19T11:27:11;29.30;99.40
44823;DHT22;51097;51.984;5.650;2022-08-19T11:29:40;29.40;99.90
44823;DHT22;51097;51.984;5.650;2022-08-19T11:32:08;29.60;99.90
44823;DHT22;51097;51.984;5.650;2022-08-19T11:34:35;29.50;99.90
44823;DHT22;51097;51.984;5.650;2022-08-19T11:37:02;29.60;99.60
44823;DHT22;51097;51.984;5.650;2022-08-19T11:39:30;29.60;99.90
44823;DHT22;51097;51.984;5.650;2022-08-19T11:41:58;29.60;99.90
44823;DHT22;51097;51.984;5.650;2022-08-19T11:44:24;29.70;99.90
44823;DHT22;51097;51.984;5.650;2022-08-19T11:46:51;29.70;99.90
44823;DHT22;51097;51.984;5.650;2022-08-19T11:49:19;29.70;99.90
44823;DHT22;51097;51.984;5.650;2022-08-19T11:51:45;29.90;99.90
44823;DHT22;51097;51.984;5.650;2022-08-19T11:54:13;30.00;99.70
44823;DHT22;51097;51.984;5.650;2022-08-19T11:56:40;30.00;99.90
44823;DHT22;51097;51.984;5.650;2022-08-19T11:59:06;30.10;99.90
44823;DHT22;51097;51.984;5.650;2022-08-19T12:01:33;30.20;99.90
44823;DHT22;51097;51.984;5.650;2022-08-19T12:03:58;30.30;99.60
44823;DHT22;51097;51.984;5.650;2022-08-19T12:06:28;30.40;99.30
44823;DHT22;51097;51.984;5.650;2022-08-19T12:08:56;30.40;99.40
44823;DHT22;51097;51.984;5.650;2022-08-19T12:11:22;30.50;99.40
44823;DHT22;51097;51.984;5.650;2022-08-19T12:13:48;30.40;98.80
44823;DHT22;51097;51.984;5.650;2022-08-19T12:16:17;30.40;98.90
44823;DHT22;51097;51.984;5.650;2022-08-19T12:18:43;30.50;98.40
44823;DHT22;51097;51.984;5.650;2022-08-19T12:21:13;30.50;98.40
44823;DHT22;51097;51.984;5.650;2022-08-19T12:23:40;30.60;98.50
44823;DHT22;51097;51.984;5.650;2022-08-19T12:26:06;30.80;98.40
44823;DHT22;51097;51.984;5.650;2022-08-19T12:28:34;30.80;97.70
44823;DHT22;51097;51.984;5.650;2022-08-19T12:31:03;30.80;97.80
44823;DHT22;51097;51.984;5.650;2022-08-19T12:33:29;30.80;98.00
44823;DHT22;51097;51.984;5.650;2022-08-19T12:36:18;30.90;98.40
44823;DHT22;51097;51.984;5.650;2022-08-19T12:46:04;31.30;97.20
44823;DHT22;51097;51.984;5.650;2022-08-19T12:48:30;31.40;97.30
44823;DHT22;51097;51.984;5.650;2022-08-19T12:51:00;31.50;97.40
44823;DHT22;51097;51.984;5.650;2022-08-19T12:53:27;31.50;97.10
44823;DHT22;51097;51.984;5.650;2022-08-19T12:55:59;31.70;96.90
44823;DHT22;51097;51.984;5.650;2022-08-19T12:58:25;31.70;96.90
44823;DHT22;51097;51.984;5.650;2022-08-19T13:00:54;31.80;96.50
44823;DHT22;51097;51.984;5.650;2022-08-19T13:03:19;31.80;96.60
44823;DHT22;51097;51.984;5.650;2022-08-19T13:05:45;31.80;96.80
44823;DHT22;51097;51.984;5.650;2022-08-19T13:08:11;31.80;96.50
44823;DHT22;51097;51.984;5.650;2022-08-19T13:10:37;31.70;97.00
44823;DHT22;51097;51.984;5.650;2022-08-19T13:13:08;31.50;97.10
44823;DHT22;51097;51.984;5.650;2022-08-19T13:15:37;31.80;96.50
44823;DHT22;51097;51.984;5.650;2022-08-19T13:18:05;31.80;96.50
44823;DHT22;51097;51.984;5.650;2022-08-19T13:20:31;31.70;96.30
44823;DHT22;51097;51.984;5.650;2022-08-19T13:22:57;31.60;96.30
44823;DHT22;51097;51.984;5.650;2022-08-19T13:25:25;31.60;96.20
44823;DHT22;51097;51.984;5.650;2022-08-19T13:27:52;31.50;96.20
44823;DHT22;51097;51.984;5.650;2022-08-19T13:30:19;31.40;96.60
44823;DHT22;51097;51.984;5.650;2022-08-19T13:33:04;31.30;96.60
44823;DHT22;51097;51.984;5.650;2022-08-19T13:35:42;31.30;97.00
44823;DHT22;51097;51.984;5.650;2022-08-19T13:38:08;31.20;97.00
44823;DHT22;51097;51.984;5.650;2022-08-19T13:40:37;31.10;97.00
44823;DHT22;51097;51.984;5.650;2022-08-19T13:43:03;31.10;97.20
44823;DHT22;51097;51.984;5.650;2022-08-19T13:45:31;30.90;97.50
44823;DHT22;51097;51.984;5.650;2022-08-19T13:48:03;30.80;98.60
44823;DHT22;51097;51.984;5.650;2022-08-19T13:50:32;30.60;98.30
44823;DHT22;51097;51.984;5.650;2022-08-19T13:52:59;30.50;99.10
44823;DHT22;51097;51.984;5.650;2022-08-19T13:55:26;30.50;99.40
44823;DHT22;51097;51.984;5.650;2022-08-19T13:57:54;30.30;99.30
44823;DHT22;51097;51.984;5.650;2022-08-19T14:00:21;30.20;99.00
44823;DHT22;51097;51.984;5.650;2022-08-19T14:02:49;30.30;99.40
44823;DHT22;51097;51.984;5.650;2022-08-19T14:05:16;30.00;99.60
44823;DHT22;51097;51.984;5.650;2022-08-19T14:07:42;30.00;99.60
44823;DHT22;51097;51.984;5.650;2022-08-19T14:10:11;30.00;99.90
44823;DHT22;51097;51.984;5.650;2022-08-19T14:12:37;30.00;99.60
44823;DHT22;51097;51.984;5.650;2022-08-19T14:15:04;29.90;99.70
44823;DHT22;51097;51.984;5.650;2022-08-19T14:17:30;29.90;99.50
44823;DHT22;51097;51.984;5.650;2022-08-19T14:20:00;30.00;99.50
44823;DHT22;51097;51.984;5.650;2022-08-19T14:22:29;30.00;99.60
44823;DHT22;51097;51.984;5.650;2022-08-19T14:24:56;30.10;99.40
44823;DHT22;51097;51.984;5.650;2022-08-19T14:27:23;30.10;99.60
44823;DHT22;51097;51.984;5.650;2022-08-19T14:29:51;30.10;99.80
44823;DHT22;51097;51.984;5.650;2022-08-19T14:32:17;30.10;99.50
44823;DHT22;51097;51.984;5.650;2022-08-19T14:34:42;29.90;99.40
44823;DHT22;51097;51.984;5.650;2022-08-19T14:37:11;29.80;99.30
44823;DHT22;51097;51.984;5.650;2022-08-19T14:39:39;29.60;99.90
44823;DHT22;51097;51.984;5.650;2022-08-19T14:42:08;29.70;99.90
44823;DHT22;51097;51.984;5.650;2022-08-19T14:44:35;29.50;99.90
44823;DHT22;51097;51.984;5.650;2022-08-19T14:47:01;29.40;99.90
44823;DHT22;51097;51.984;5.650;2022-08-19T14:49:26;29.20;99.90
44823;DHT22;51097;51.984;5.650;2022-08-19T14:51:52;29.00;99.90
44823;DHT22;51097;51.984;5.650;2022-08-19T14:54:18;29.00;99.90
44823;DHT22;51097;51.984;5.650;2022-08-19T14:56:43;29.10;99.90
44823;DHT22;51097;51.984;5.650;2022-08-19T14:59:09;28.80;99.90
44823;DHT22;51097;51.984;5.650;2022-08-19T15:01:35;28.70;99.90
44823;DHT22;51097;51.984;5.650;2022-08-19T15:04:00;28.60;99.90
44823;DHT22;51097;51.984;5.650;2022-08-19T15:06:26;28.60;99.90
44823;DHT22;51097;51.984;5.650;2022-08-19T15:08:53;28.50;99.90
44823;DHT22;51097;51.984;5.650;2022-08-19T15:11:21;28.60;99.90
44823;DHT22;51097;51.984;5.650;2022-08-19T15:13:48;28.40;99.90
44823;DHT22;51097;51.984;5.650;2022-08-19T15:16:14;28.40;99.90
44823;DHT22;51097;51.984;5.650;2022-08-19T15:18:43;28.40;99.90
44823;DHT22;51097;51.984;5.650;2022-08-19T15:21:13;28.40;99.90
44823;DHT22;51097;51.984;5.650;2022-08-19T15:23:40;28.30;99.90
44823;DHT22;51097;51.984;5.650;2022-08-19T15:26:06;28.40;99.90
44823;DHT22;51097;51.984;5.650;2022-08-19T15:28:32;28.30;99.90
44823;DHT22;51097;51.984;5.650;2022-08-19T15:30:58;28.20;99.90
44823;DHT22;51097;51.984;5.650;2022-08-19T15:33:24;28.20;99.90
44823;DHT22;51097;51.984;5.650;2022-08-19T15:35:50;28.20;99.90
44823;DHT22;51097;51.984;5.650;2022-08-19T15:38:17;28.10;99.90
44823;DHT22;51097;51.984;5.650;2022-08-19T15:40:47;28.00;99.90
44823;DHT22;51097;51.984;5.650;2022-08-19T15:43:15;28.10;99.90
44823;DHT22;51097;51.984;5.650;2022-08-19T15:45:42;28.10;99.90
44823;DHT22;51097;51.984;5.650;2022-08-19T15:48:08;28.20;99.90
44823;DHT22;51097;51.984;5.650;2022-08-19T15:50:34;28.20;99.90
44823;DHT22;51097;51.984;5.650;2022-08-19T15:53:07;28.10;99.90
44823;DHT22;51097;51.984;5.650;2022-08-19T15:55:35;28.30;99.90